sensor_id;sensor_type;location;lat;lon;timestamp;P1;durP1;ratioP1;P2;durP2;ratioP2
64037;SDS011;54641;50.168;8.492;2022-09-09T00:02:08;4.50;;;1.20;;
64037;SDS011;54641;50.168;8.492;2022-09-09T00:04:47;6.90;;;1.30;;
64037;SDS011;54641;50.168;8.492;2022-09-09T00:07:31;6.40;;;1.40;;
64037;SDS011;54641;50.168;8.492;2022-09-09T00:10:09;3.80;;;1.10;;
64037;SDS011;54641;50.168;8.492;2022-09-09T00:12:48;4.00;;;1.50;;
64037;SDS011;54641;50.168;8.492;2022-09-09T00:15:25;4.40;;;1.30;;
64037;SDS011;54641;50.168;8.492;2022-09-09T00:18:00;4.60;;;1.40;;
64037;SDS011;54641;50.168;8.492;2022-09-09T00:20:38;4.50;;;1.50;;
64037;SDS011;54641;50.168;8.492;2022-09-09T00:23:14;4.20;;;1.30;;
64037;SDS011;54641;50.168;8.492;2022-09-09T00:25:50;3.00;;;1.20;;
64037;SDS011;54641;50.168;8.492;2022-09-09T00:28:26;4.70;;;1.20;;
64037;SDS011;54641;50.168;8.492;2022-09-09T00:31:00;4.20;;;1.20;;
64037;SDS011;54641;50.168;8.492;2022-09-09T00:33:40;3.60;;;1.30;;
64037;SDS011;54641;50.168;8.492;2022-09-09T00:36:12;5.10;;;1.50;;
64037;SDS011;54641;50.168;8.492;2022-09-09T00:38:45;4.60;;;1.50;;
64037;SDS011;54641;50.168;8.492;2022-09-09T00:41:20;4.90;;;2.00;;
64037;SDS011;54641;50.168;8.492;2022-09-09T00:43:57;2.40;;;1.40;;
64037;SDS011;54641;50.168;8.492;2022-09-09T00:46:41;2.80;;;1.30;;
64037;SDS011;54641;50.168;8.492;2022-09-09T00:49:31;2.00;;;1.20;;
64037;SDS011;54641;50.168;8.492;2022-09-09T00:52:11;4.10;;;1.50;;
64037;SDS011;54641;50.168;8.492;2022-09-09T00:54:50;3.30;;;1.40;;
64037;SDS011;54641;50.168;8.492;2022-09-09T00:57:25;3.40;;;1.40;;
64037;SDS011;54641;50.168;8.492;2022-09-09T00:59:58;3.40;;;1.50;;
64037;SDS011;54641;50.168;8.492;2022-09-09T01:02:45;5.00;;;1.30;;
64037;SDS011;54641;50.168;8.492;2022-09-09T01:05:22;5.90;;;1.30;;
64037;SDS011;54641;50.168;8.492;2022-09-09T01:07:58;5.30;;;1.60;;
64037;SDS011;54641;50.168;8.492;2022-09-09T01:10:36;5.20;;;1.80;;
64037;SDS011;54641;50.168;8.492;2022-09-09T01:13:11;3.30;;;1.30;;
64037;SDS011;54641;50.168;8.492;2022-09-09T01:15:45;3.80;;;1.70;;
64037;SDS011;54641;50.168;8.492;2022-09-09T01:18:17;2.90;;;1.60;;
64037;SDS011;54641;50.168;8.492;2022-09-09T01:20:52;3.60;;;1.40;;
64037;SDS011;54641;50.168;8.492;2022-09-09T01:23:30;3.00;;;1.30;;
64037;SDS011;54641;50.168;8.492;2022-09-09T01:26:26;4.20;;;1.70;;
64037;SDS011;54641;50.168;8.492;2022-09-09T01:29:00;6.80;;;1.50;;
64037;SDS011;54641;50.168;8.492;2022-09-09T01:31:35;3.60;;;1.50;;
64037;SDS011;54641;50.168;8.492;2022-09-09T01:34:10;4.10;;;1.30;;
64037;SDS011;54641;50.168;8.492;2022-09-09T01:36:43;6.60;;;1.40;;
64037;SDS011;54641;50.168;8.492;2022-09-09T01:39:15;4.40;;;1.20;;
64037;SDS011;54641;50.168;8.492;2022-09-09T01:41:49;5.10;;;1.80;;
64037;SDS011;54641;50.168;8.492;2022-09-09T01:44:20;2.90;;;1.40;;
64037;SDS011;54641;50.168;8.492;2022-09-09T01:46:50;4.20;;;1.50;;
64037;SDS011;54641;50.168;8.492;2022-09-09T01:49:22;3.80;;;2.30;;
64037;SDS011;54641;50.168;8.492;2022-09-09T01:51:53;5.80;;;1.50;;
64037;SDS011;54641;50.168;8.492;2022-09-09T01:54:30;3.80;;;1.80;;
64037;SDS011;54641;50.168;8.492;2022-09-09T01:57:06;3.90;;;1.50;;
64037;SDS011;54641;50.168;8.492;2022-09-09T01:59:54;3.80;;;2.10;;
64037;SDS011;54641;50.168;8.492;2022-09-09T02:02:43;5.20;;;1.50;;
64037;SDS011;54641;50.168;8.492;2022-09-09T02:05:25;5.40;;;1.70;;
64037;SDS011;54641;50.168;8.492;2022-09-09T02:08:03;6.30;;;1.70;;
64037;SDS011;54641;50.168;8.492;2022-09-09T02:10:53;3.50;;;1.70;;
64037;SDS011;54641;50.168;8.492;2022-09-09T02:13:36;4.90;;;1.80;;
64037;SDS011;54641;50.168;8.492;2022-09-09T02:16:12;4.30;;;1.80;;
64037;SDS011;54641;50.168;8.492;2022-09-09T02:26:14;3.90;;;1.70;;
64037;SDS011;54641;50.168;8.492;2022-09-09T02:28:52;9.60;;;2.80;;
64037;SDS011;54641;50.168;8.492;2022-09-09T02:31:25;5.80;;;1.90;;
64037;SDS011;54641;50.168;8.492;2022-09-09T02:34:00;3.20;;;1.30;;
64037;SDS011;54641;50.168;8.492;2022-09-09T02:36:32;4.50;;;2.30;;
64037;SDS011;54641;50.168;8.492;2022-09-09T02:39:03;4.50;;;1.90;;
64037;SDS011;54641;50.168;8.492;2022-09-09T02:41:37;4.70;;;2.30;;
64037;SDS011;54641;50.168;8.492;2022-09-09T02:44:10;4.30;;;1.60;;
64037;SDS011;54641;50.168;8.492;2022-09-09T02:46:46;3.90;;;1.70;;
64037;SDS011;54641;50.168;8.492;2022-09-09T02:49:27;6.40;;;1.60;;
64037;SDS011;54641;50.168;8.492;2022-09-09T02:52:00;6.10;;;1.80;;
64037;SDS011;54641;50.168;8.492;2022-09-09T02:54:34;5.00;;;2.20;;
64037;SDS011;54641;50.168;8.492;2022-09-09T02:57:10;3.40;;;1.30;;
64037;SDS011;54641;50.168;8.492;2022-09-09T02:59:42;5.30;;;1.60;;
64037;SDS011;54641;50.168;8.492;2022-09-09T03:02:13;4.40;;;1.50;;
64037;SDS011;54641;50.168;8.492;2022-09-09T03:04:46;2.60;;;1.40;;
64037;SDS011;54641;50.168;8.492;2022-09-09T03:07:19;6.20;;;1.60;;
64037;SDS011;54641;50.168;8.492;2022-09-09T03:09:51;3.40;;;1.40;;
64037;SDS011;54641;50.168;8.492;2022-09-09T03:12:23;8.00;;;1.80;;
64037;SDS011;54641;50.168;8.492;2022-09-09T03:14:54;2.80;;;1.30;;
64037;SDS011;54641;50.168;8.492;2022-09-09T03:17:25;2.90;;;1.20;;
64037;SDS011;54641;50.168;8.492;2022-09-09T03:19:55;3.00;;;1.40;;
64037;SDS011;54641;50.168;8.492;2022-09-09T03:22:26;4.10;;;1.40;;
64037;SDS011;54641;50.168;8.492;2022-09-09T03:24:57;2.20;;;1.50;;
64037;SDS011;54641;50.168;8.492;2022-09-09T03:27:28;3.90;;;1.80;;
64037;SDS011;54641;50.168;8.492;2022-09-09T03:29:59;3.30;;;1.40;;
64037;SDS011;54641;50.168;8.492;2022-09-09T03:32:31;3.60;;;1.50;;
64037;SDS011;54641;50.168;8.492;2022-09-09T03:35:02;3.00;;;1.20;;
64037;SDS011;54641;50.168;8.492;2022-09-09T03:37:34;3.70;;;1.40;;
64037;SDS011;54641;50.168;8.492;2022-09-09T03:42:38;4.60;;;1.90;;
64037;SDS011;54641;50.168;8.492;2022-09-09T03:45:09;4.30;;;1.50;;
64037;SDS011;54641;50.168;8.492;2022-09-09T03:47:40;2.80;;;1.50;;
64037;SDS011;54641;50.168;8.492;2022-09-09T03:50:11;4.60;;;1.70;;
64037;SDS011;54641;50.168;8.492;2022-09-09T03:52:44;3.40;;;1.30;;
64037;SDS011;54641;50.168;8.492;2022-09-09T03:55:20;5.50;;;1.80;;
64037;SDS011;54641;50.168;8.492;2022-09-09T03:57:51;2.90;;;1.60;;
64037;SDS011;54641;50.168;8.492;2022-09-09T04:00:21;3.50;;;1.80;;
64037;SDS011;54641;50.168;8.492;2022-09-09T04:02:52;4.10;;;1.50;;
64037;SDS011;54641;50.168;8.492;2022-09-09T04:05:23;5.70;;;1.60;;
64037;SDS011;54641;50.168;8.492;2022-09-09T04:07:54;4.50;;;1.40;;
64037;SDS011;54641;50.168;8.492;2022-09-09T04:10:24;4.00;;;1.50;;
64037;SDS011;54641;50.168;8.492;2022-09-09T04:12:56;3.90;;;1.80;;
64037;SDS011;54641;50.168;8.492;2022-09-09T04:15:27;3.40;;;1.50;;
64037;SDS011;54641;50.168;8.492;2022-09-09T04:17:58;4.70;;;1.40;;
64037;SDS011;54641;50.168;8.492;2022-09-09T04:20:28;4.30;;;1.30;;
64037;SDS011;54641;50.168;8.492;2022-09-09T04:22:59;2.90;;;1.50;;
64037;SDS011;54641;50.168;8.492;2022-09-09T04:25:29;5.50;;;1.70;;
64037;SDS011;54641;50.168;8.492;2022-09-09T04:28:01;3.70;;;1.50;;
64037;SDS011;54641;50.168;8.492;2022-09-09T04:30:32;4.20;;;1.90;;
64037;SDS011;54641;50.168;8.492;2022-09-09T04:33:03;4.90;;;1.50;;
64037;SDS011;54641;50.168;8.492;2022-09-09T04:35:34;4.10;;;1.70;;
64037;SDS011;54641;50.168;8.492;2022-09-09T04:38:05;1.80;;;1.20;;
64037;SDS011;54641;50.168;8.492;2022-09-09T04:40:37;5.90;;;1.80;;
64037;SDS011;54641;50.168;8.492;2022-09-09T04:43:10;3.10;;;1.30;;
64037;SDS011;54641;50.168;8.492;2022-09-09T04:45:42;4.00;;;1.50;;
64037;SDS011;54641;50.168;8.492;2022-09-09T04:50:44;4.70;;;1.70;;
64037;SDS011;54641;50.168;8.492;2022-09-09T04:53:14;4.90;;;1.50;;
64037;SDS011;54641;50.168;8.492;2022-09-09T04:55:45;2.80;;;1.20;;
64037;SDS011;54641;50.168;8.492;2022-09-09T04:58:16;7.20;;;1.80;;
64037;SDS011;54641;50.168;8.492;2022-09-09T05:00:49;3.50;;;1.50;;
64037;SDS011;54641;50.168;8.492;2022-09-09T05:03:21;3.20;;;1.30;;
64037;SDS011;54641;50.168;8.492;2022-09-09T05:05:51;4.50;;;1.60;;
64037;SDS011;54641;50.168;8.492;2022-09-09T05:08:22;4.90;;;1.50;;
64037;SDS011;54641;50.168;8.492;2022-09-09T05:10:54;7.30;;;1.60;;
64037;SDS011;54641;50.168;8.492;2022-09-09T05:13:24;4.50;;;1.60;;
64037;SDS011;54641;50.168;8.492;2022-09-09T05:15:59;4.50;;;1.10;;
64037;SDS011;54641;50.168;8.492;2022-09-09T05:18:29;6.00;;;1.50;;
64037;SDS011;54641;50.168;8.492;2022-09-09T05:21:00;6.90;;;1.40;;
64037;SDS011;54641;50.168;8.492;2022-09-09T05:23:31;5.30;;;1.40;;
64037;SDS011;54641;50.168;8.492;2022-09-09T05:26:02;6.80;;;1.60;;
64037;SDS011;54641;50.168;8.492;2022-09-09T05:28:34;6.20;;;2.90;;
64037;SDS011;54641;50.168;8.492;2022-09-09T05:31:06;3.70;;;1.50;;
64037;SDS011;54641;50.168;8.492;2022-09-09T05:33:40;6.40;;;1.60;;
64037;SDS011;54641;50.168;8.492;2022-09-09T05:36:14;4.00;;;1.50;;
64037;SDS011;54641;50.168;8.492;2022-09-09T05:38:46;4.20;;;1.70;;
64037;SDS011;54641;50.168;8.492;2022-09-09T05:41:17;4.30;;;1.60;;
64037;SDS011;54641;50.168;8.492;2022-09-09T05:43:49;3.20;;;1.40;;
64037;SDS011;54641;50.168;8.492;2022-09-09T05:46:20;3.90;;;1.30;;
64037;SDS011;54641;50.168;8.492;2022-09-09T05:48:54;2.90;;;1.20;;
64037;SDS011;54641;50.168;8.492;2022-09-09T05:51:28;4.00;;;1.60;;
64037;SDS011;54641;50.168;8.492;2022-09-09T05:54:03;2.40;;;1.20;;
64037;SDS011;54641;50.168;8.492;2022-09-09T05:56:35;4.70;;;1.80;;
64037;SDS011;54641;50.168;8.492;2022-09-09T05:59:07;2.90;;;1.30;;
64037;SDS011;54641;50.168;8.492;2022-09-09T06:01:38;8.60;;;1.70;;
64037;SDS011;54641;50.168;8.492;2022-09-09T06:04:16;5.80;;;2.10;;
64037;SDS011;54641;50.168;8.492;2022-09-09T06:06:50;3.20;;;1.30;;
64037;SDS011;54641;50.168;8.492;2022-09-09T06:09:21;3.40;;;1.60;;
64037;SDS011;54641;50.168;8.492;2022-09-09T06:11:52;7.20;;;1.90;;
64037;SDS011;54641;50.168;8.492;2022-09-09T06:14:22;4.20;;;2.00;;
64037;SDS011;54641;50.168;8.492;2022-09-09T06:16:56;3.30;;;1.40;;
64037;SDS011;54641;50.168;8.492;2022-09-09T06:21:59;7.70;;;1.50;;
64037;SDS011;54641;50.168;8.492;2022-09-09T06:24:30;3.10;;;1.50;;
64037;SDS011;54641;50.168;8.492;2022-09-09T06:27:02;9.30;;;1.80;;
64037;SDS011;54641;50.168;8.492;2022-09-09T06:29:34;4.90;;;1.90;;
64037;SDS011;54641;50.168;8.492;2022-09-09T06:32:05;4.40;;;1.80;;
64037;SDS011;54641;50.168;8.492;2022-09-09T06:34:36;4.90;;;1.70;;
64037;SDS011;54641;50.168;8.492;2022-09-09T06:37:06;8.80;;;1.70;;
64037;SDS011;54641;50.168;8.492;2022-09-09T06:39:42;4.00;;;1.90;;
64037;SDS011;54641;50.168;8.492;2022-09-09T06:42:13;4.40;;;1.80;;
64037;SDS011;54641;50.168;8.492;2022-09-09T06:44:52;4.40;;;1.90;;
64037;SDS011;54641;50.168;8.492;2022-09-09T06:47:35;5.80;;;1.60;;
64037;SDS011;54641;50.168;8.492;2022-09-09T06:50:06;4.40;;;2.00;;
64037;SDS011;54641;50.168;8.492;2022-09-09T06:52:38;10.60;;;2.70;;
64037;SDS011;54641;50.168;8.492;2022-09-09T06:55:09;8.20;;;2.80;;
64037;SDS011;54641;50.168;8.492;2022-09-09T06:57:40;5.40;;;2.50;;
64037;SDS011;54641;50.168;8.492;2022-09-09T07:00:15;4.10;;;2.20;;
64037;SDS011;54641;50.168;8.492;2022-09-09T07:02:46;6.20;;;2.70;;
64037;SDS011;54641;50.168;8.492;2022-09-09T07:05:18;4.60;;;2.40;;
64037;SDS011;54641;50.168;8.492;2022-09-09T07:07:49;6.60;;;2.40;;
64037;SDS011;54641;50.168;8.492;2022-09-09T07:10:20;12.50;;;2.50;;
64037;SDS011;54641;50.168;8.492;2022-09-09T07:12:51;5.70;;;2.50;;
64037;SDS011;54641;50.168;8.492;2022-09-09T07:15:24;5.30;;;2.40;;
64037;SDS011;54641;50.168;8.492;2022-09-09T07:17:54;6.20;;;2.90;;
64037;SDS011;54641;50.168;8.492;2022-09-09T07:20:25;7.40;;;2.50;;
64037;SDS011;54641;50.168;8.492;2022-09-09T07:22:55;5.40;;;2.30;;
64037;SDS011;54641;50.168;8.492;2022-09-09T07:25:26;5.90;;;2.30;;
64037;SDS011;54641;50.168;8.492;2022-09-09T07:27:58;3.40;;;2.00;;
64037;SDS011;54641;50.168;8.492;2022-09-09T07:30:29;3.90;;;2.00;;
64037;SDS011;54641;50.168;8.492;2022-09-09T07:32:59;6.90;;;2.00;;
64037;SDS011;54641;50.168;8.492;2022-09-09T07:35:31;7.00;;;2.70;;
64037;SDS011;54641;50.168;8.492;2022-09-09T07:38:03;3.70;;;2.00;;
64037;SDS011;54641;50.168;8.492;2022-09-09T07:40:34;8.70;;;2.30;;
64037;SDS011;54641;50.168;8.492;2022-09-09T07:43:05;6.70;;;2.10;;
64037;SDS011;54641;50.168;8.492;2022-09-09T07:45:39;8.00;;;2.60;;
64037;SDS011;54641;50.168;8.492;2022-09-09T07:48:10;5.70;;;2.30;;
64037;SDS011;54641;50.168;8.492;2022-09-09T07:50:41;5.90;;;2.10;;
64037;SDS011;54641;50.168;8.492;2022-09-09T07:53:12;4.50;;;1.80;;
64037;SDS011;54641;50.168;8.492;2022-09-09T07:55:42;4.80;;;2.00;;
64037;SDS011;54641;50.168;8.492;2022-09-09T07:58:13;6.60;;;2.10;;
64037;SDS011;54641;50.168;8.492;2022-09-09T08:00:43;4.10;;;1.80;;
64037;SDS011;54641;50.168;8.492;2022-09-09T08:03:13;4.30;;;1.80;;
64037;SDS011;54641;50.168;8.492;2022-09-09T08:05:44;6.40;;;2.10;;
64037;SDS011;54641;50.168;8.492;2022-09-09T08:08:14;4.50;;;1.50;;
64037;SDS011;54641;50.168;8.492;2022-09-09T08:10:44;4.80;;;2.10;;
64037;SDS011;54641;50.168;8.492;2022-09-09T08:13:15;4.60;;;2.20;;
64037;SDS011;54641;50.168;8.492;2022-09-09T08:15:47;8.60;;;2.40;;
64037;SDS011;54641;50.168;8.492;2022-09-09T08:18:19;4.20;;;1.70;;
64037;SDS011;54641;50.168;8.492;2022-09-09T08:20:50;5.10;;;2.00;;
64037;SDS011;54641;50.168;8.492;2022-09-09T08:23:21;8.60;;;1.60;;
64037;SDS011;54641;50.168;8.492;2022-09-09T08:25:51;3.60;;;1.80;;
64037;SDS011;54641;50.168;8.492;2022-09-09T08:28:21;5.40;;;1.60;;
64037;SDS011;54641;50.168;8.492;2022-09-09T08:31:31;4.60;;;1.90;;
64037;SDS011;54641;50.168;8.492;2022-09-09T08:36:33;7.80;;;1.80;;
64037;SDS011;54641;50.168;8.492;2022-09-09T08:41:39;5.20;;;2.20;;
64037;SDS011;54641;50.168;8.492;2022-09-09T08:44:17;4.80;;;1.90;;
64037;SDS011;54641;50.168;8.492;2022-09-09T08:46:53;5.20;;;2.30;;
64037;SDS011;54641;50.168;8.492;2022-09-09T08:55:27;14.10;;;2.70;;
64037;SDS011;54641;50.168;8.492;2022-09-09T08:58:06;7.20;;;2.50;;
64037;SDS011;54641;50.168;8.492;2022-09-09T09:00:44;8.60;;;2.80;;
64037;SDS011;54641;50.168;8.492;2022-09-09T09:03:27;7.80;;;3.00;;
64037;SDS011;54641;50.168;8.492;2022-09-09T09:06:01;8.40;;;3.10;;
64037;SDS011;54641;50.168;8.492;2022-09-09T09:08:38;6.80;;;2.70;;
64037;SDS011;54641;50.168;8.492;2022-09-09T09:11:12;5.70;;;2.50;;
64037;SDS011;54641;50.168;8.492;2022-09-09T09:13:44;5.90;;;2.50;;
64037;SDS011;54641;50.168;8.492;2022-09-09T09:16:22;7.30;;;2.80;;
64037;SDS011;54641;50.168;8.492;2022-09-09T09:18:56;5.60;;;2.90;;
64037;SDS011;54641;50.168;8.492;2022-09-09T09:28:33;7.30;;;3.10;;
64037;SDS011;54641;50.168;8.492;2022-09-09T09:31:11;8.50;;;3.30;;
64037;SDS011;54641;50.168;8.492;2022-09-09T09:33:47;7.20;;;2.80;;
64037;SDS011;54641;50.168;8.492;2022-09-09T09:36:23;9.80;;;3.60;;
64037;SDS011;54641;50.168;8.492;2022-09-09T09:38:56;4.90;;;2.90;;
64037;SDS011;54641;50.168;8.492;2022-09-09T09:41:47;5.90;;;3.50;;
64037;SDS011;54641;50.168;8.492;2022-09-09T09:44:23;6.50;;;3.80;;
64037;SDS011;54641;50.168;8.492;2022-09-09T09:47:06;10.20;;;3.70;;
64037;SDS011;54641;50.168;8.492;2022-09-09T09:49:40;7.10;;;3.20;;
64037;SDS011;54641;50.168;8.492;2022-09-09T09:52:22;7.70;;;3.40;;
64037;SDS011;54641;50.168;8.492;2022-09-09T09:54:55;8.90;;;3.80;;
64037;SDS011;54641;50.168;8.492;2022-09-09T09:57:34;6.90;;;4.00;;
64037;SDS011;54641;50.168;8.492;2022-09-09T10:00:13;11.60;;;5.00;;
64037;SDS011;54641;50.168;8.492;2022-09-09T10:02:50;7.70;;;3.20;;
64037;SDS011;54641;50.168;8.492;2022-09-09T10:05:24;8.80;;;2.90;;
64037;SDS011;54641;50.168;8.492;2022-09-09T10:08:08;6.90;;;3.50;;
64037;SDS011;54641;50.168;8.492;2022-09-09T10:10:48;10.70;;;4.40;;
64037;SDS011;54641;50.168;8.492;2022-09-09T10:13:27;5.90;;;2.90;;
64037;SDS011;54641;50.168;8.492;2022-09-09T10:16:05;6.50;;;2.60;;
64037;SDS011;54641;50.168;8.492;2022-09-09T10:18:45;7.20;;;3.10;;
64037;SDS011;54641;50.168;8.492;2022-09-09T10:21:23;5.60;;;2.90;;
64037;SDS011;54641;50.168;8.492;2022-09-09T10:24:09;8.90;;;3.20;;
64037;SDS011;54641;50.168;8.492;2022-09-09T10:26:50;4.90;;;3.10;;
64037;SDS011;54641;50.168;8.492;2022-09-09T10:29:29;6.00;;;3.20;;
64037;SDS011;54641;50.168;8.492;2022-09-09T10:32:24;6.40;;;2.70;;
64037;SDS011;54641;50.168;8.492;2022-09-09T10:35:08;4.90;;;2.50;;
64037;SDS011;54641;50.168;8.492;2022-09-09T10:37:44;4.90;;;1.90;;
64037;SDS011;54641;50.168;8.492;2022-09-09T10:40:24;7.20;;;2.40;;
64037;SDS011;54641;50.168;8.492;2022-09-09T10:43:07;10.50;;;2.90;;
64037;SDS011;54641;50.168;8.492;2022-09-09T10:45:44;6.20;;;2.60;;
64037;SDS011;54641;50.168;8.492;2022-09-09T10:48:27;7.60;;;2.80;;
64037;SDS011;54641;50.168;8.492;2022-09-09T10:51:11;5.00;;;2.10;;
64037;SDS011;54641;50.168;8.492;2022-09-09T10:54:06;6.60;;;2.50;;
64037;SDS011;54641;50.168;8.492;2022-09-09T10:56:44;7.00;;;2.60;;
64037;SDS011;54641;50.168;8.492;2022-09-09T10:59:22;6.40;;;2.40;;
64037;SDS011;54641;50.168;8.492;2022-09-09T11:01:55;5.40;;;2.30;;
64037;SDS011;54641;50.168;8.492;2022-09-09T11:04:28;4.10;;;2.40;;
64037;SDS011;54641;50.168;8.492;2022-09-09T11:07:02;6.30;;;2.70;;
64037;SDS011;54641;50.168;8.492;2022-09-09T11:09:39;5.90;;;2.10;;
64037;SDS011;54641;50.168;8.492;2022-09-09T11:12:12;3.30;;;1.80;;
64037;SDS011;54641;50.168;8.492;2022-09-09T11:14:47;3.20;;;1.50;;
64037;SDS011;54641;50.168;8.492;2022-09-09T11:19:48;6.60;;;1.60;;
64037;SDS011;54641;50.168;8.492;2022-09-09T11:22:26;3.40;;;1.50;;
64037;SDS011;54641;50.168;8.492;2022-09-09T11:24:58;5.20;;;1.70;;
64037;SDS011;54641;50.168;8.492;2022-09-09T11:27:32;5.10;;;1.60;;
64037;SDS011;54641;50.168;8.492;2022-09-09T11:30:14;2.50;;;1.20;;
64037;SDS011;54641;50.168;8.492;2022-09-09T11:33:15;4.00;;;1.30;;
64037;SDS011;54641;50.168;8.492;2022-09-09T11:35:58;2.30;;;1.20;;
64037;SDS011;54641;50.168;8.492;2022-09-09T11:38:36;3.50;;;1.00;;
64037;SDS011;54641;50.168;8.492;2022-09-09T11:41:09;3.40;;;1.20;;
64037;SDS011;54641;50.168;8.492;2022-09-09T11:43:46;4.00;;;1.10;;
64037;SDS011;54641;50.168;8.492;2022-09-09T11:46:19;3.30;;;1.30;;
64037;SDS011;54641;50.168;8.492;2022-09-09T11:48:59;3.90;;;1.30;;
64037;SDS011;54641;50.168;8.492;2022-09-09T11:51:30;5.90;;;1.40;;
64037;SDS011;54641;50.168;8.492;2022-09-09T11:54:04;5.80;;;1.80;;
64037;SDS011;54641;50.168;8.492;2022-09-09T11:56:58;4.80;;;1.20;;
64037;SDS011;54641;50.168;8.492;2022-09-09T11:59:29;2.60;;;1.10;;
64037;SDS011;54641;50.168;8.492;2022-09-09T12:02:01;4.90;;;1.40;;
64037;SDS011;54641;50.168;8.492;2022-09-09T12:04:38;4.40;;;1.30;;
64037;SDS011;54641;50.168;8.492;2022-09-09T12:07:23;5.40;;;1.50;;
64037;SDS011;54641;50.168;8.492;2022-09-09T12:10:00;4.90;;;1.60;;
64037;SDS011;54641;50.168;8.492;2022-09-09T12:12:33;3.40;;;1.40;;
64037;SDS011;54641;50.168;8.492;2022-09-09T12:15:26;4.00;;;1.40;;
64037;SDS011;54641;50.168;8.492;2022-09-09T12:17:57;6.00;;;1.70;;
64037;SDS011;54641;50.168;8.492;2022-09-09T12:20:34;3.20;;;1.10;;
64037;SDS011;54641;50.168;8.492;2022-09-09T12:26:03;4.50;;;1.30;;
64037;SDS011;54641;50.168;8.492;2022-09-09T12:28:51;4.90;;;1.50;;
64037;SDS011;54641;50.168;8.492;2022-09-09T12:31:26;3.60;;;1.20;;
64037;SDS011;54641;50.168;8.492;2022-09-09T12:34:04;2.90;;;1.70;;
64037;SDS011;54641;50.168;8.492;2022-09-09T12:36:40;3.80;;;1.30;;
64037;SDS011;54641;50.168;8.492;2022-09-09T12:39:18;5.50;;;1.70;;
64037;SDS011;54641;50.168;8.492;2022-09-09T12:41:53;5.40;;;1.50;;
64037;SDS011;54641;50.168;8.492;2022-09-09T12:44:25;4.60;;;1.20;;
64037;SDS011;54641;50.168;8.492;2022-09-09T12:46:56;3.00;;;1.10;;
64037;SDS011;54641;50.168;8.492;2022-09-09T12:49:32;2.70;;;1.10;;
64037;SDS011;54641;50.168;8.492;2022-09-09T12:52:05;2.90;;;0.90;;
64037;SDS011;54641;50.168;8.492;2022-09-09T12:54:37;3.90;;;1.00;;
64037;SDS011;54641;50.168;8.492;2022-09-09T12:57:11;4.00;;;1.10;;
64037;SDS011;54641;50.168;8.492;2022-09-09T12:59:43;3.30;;;1.00;;
64037;SDS011;54641;50.168;8.492;2022-09-09T13:02:20;2.80;;;0.90;;
64037;SDS011;54641;50.168;8.492;2022-09-09T13:04:52;3.80;;;1.10;;
64037;SDS011;54641;50.168;8.492;2022-09-09T13:07:23;3.90;;;1.30;;
64037;SDS011;54641;50.168;8.492;2022-09-09T13:09:53;4.50;;;1.60;;
64037;SDS011;54641;50.168;8.492;2022-09-09T13:12:24;4.30;;;1.20;;
64037;SDS011;54641;50.168;8.492;2022-09-09T13:14:55;3.60;;;1.20;;
64037;SDS011;54641;50.168;8.492;2022-09-09T13:17:26;4.40;;;1.30;;
64037;SDS011;54641;50.168;8.492;2022-09-09T13:19:57;4.10;;;1.00;;
64037;SDS011;54641;50.168;8.492;2022-09-09T13:22:29;2.30;;;0.90;;
64037;SDS011;54641;50.168;8.492;2022-09-09T13:25:01;2.50;;;1.00;;
64037;SDS011;54641;50.168;8.492;2022-09-09T13:27:34;2.90;;;0.90;;
64037;SDS011;54641;50.168;8.492;2022-09-09T13:30:21;4.80;;;1.00;;
64037;SDS011;54641;50.168;8.492;2022-09-09T13:33:17;2.30;;;0.90;;
64037;SDS011;54641;50.168;8.492;2022-09-09T13:35:52;2.60;;;0.90;;
64037;SDS011;54641;50.168;8.492;2022-09-09T13:38:24;4.30;;;0.90;;
64037;SDS011;54641;50.168;8.492;2022-09-09T13:40:55;3.50;;;1.00;;
64037;SDS011;54641;50.168;8.492;2022-09-09T13:43:29;2.70;;;0.90;;
64037;SDS011;54641;50.168;8.492;2022-09-09T13:46:03;6.30;;;1.20;;
64037;SDS011;54641;50.168;8.492;2022-09-09T13:48:34;3.50;;;1.00;;
64037;SDS011;54641;50.168;8.492;2022-09-09T13:51:05;4.40;;;1.10;;
64037;SDS011;54641;50.168;8.492;2022-09-09T13:53:49;6.10;;;1.40;;
64037;SDS011;54641;50.168;8.492;2022-09-09T13:56:19;4.00;;;0.90;;
64037;SDS011;54641;50.168;8.492;2022-09-09T13:58:50;2.80;;;1.00;;
64037;SDS011;54641;50.168;8.492;2022-09-09T14:01:20;3.40;;;0.90;;
64037;SDS011;54641;50.168;8.492;2022-09-09T14:03:56;4.00;;;0.70;;
64037;SDS011;54641;50.168;8.492;2022-09-09T14:06:26;3.80;;;0.90;;
64037;SDS011;54641;50.168;8.492;2022-09-09T14:08:56;2.70;;;0.90;;
64037;SDS011;54641;50.168;8.492;2022-09-09T14:11:27;2.60;;;0.80;;
64037;SDS011;54641;50.168;8.492;2022-09-09T14:13:57;4.30;;;0.70;;
64037;SDS011;54641;50.168;8.492;2022-09-09T14:16:28;2.90;;;0.90;;
64037;SDS011;54641;50.168;8.492;2022-09-09T14:18:58;2.60;;;0.70;;
64037;SDS011;54641;50.168;8.492;2022-09-09T14:21:29;3.60;;;0.60;;
64037;SDS011;54641;50.168;8.492;2022-09-09T14:24:00;2.40;;;1.00;;
64037;SDS011;54641;50.168;8.492;2022-09-09T14:26:30;2.20;;;0.70;;
64037;SDS011;54641;50.168;8.492;2022-09-09T14:29:01;2.20;;;0.70;;
64037;SDS011;54641;50.168;8.492;2022-09-09T14:31:31;3.10;;;0.80;;
64037;SDS011;54641;50.168;8.492;2022-09-09T14:34:02;2.80;;;0.80;;
64037;SDS011;54641;50.168;8.492;2022-09-09T14:36:33;3.10;;;0.70;;
64037;SDS011;54641;50.168;8.492;2022-09-09T14:39:04;3.50;;;0.80;;
64037;SDS011;54641;50.168;8.492;2022-09-09T14:41:34;3.50;;;0.80;;
64037;SDS011;54641;50.168;8.492;2022-09-09T14:44:05;2.60;;;0.80;;
64037;SDS011;54641;50.168;8.492;2022-09-09T14:46:36;3.00;;;0.90;;
64037;SDS011;54641;50.168;8.492;2022-09-09T14:49:06;4.40;;;0.90;;
64037;SDS011;54641;50.168;8.492;2022-09-09T14:51:37;3.00;;;1.60;;
64037;SDS011;54641;50.168;8.492;2022-09-09T14:54:08;3.20;;;1.00;;
64037;SDS011;54641;50.168;8.492;2022-09-09T14:56:38;2.00;;;0.70;;
64037;SDS011;54641;50.168;8.492;2022-09-09T14:59:08;3.90;;;1.30;;
64037;SDS011;54641;50.168;8.492;2022-09-09T15:01:40;3.60;;;1.20;;
64037;SDS011;54641;50.168;8.492;2022-09-09T15:04:11;3.60;;;0.80;;
64037;SDS011;54641;50.168;8.492;2022-09-09T15:06:42;3.30;;;1.00;;
64037;SDS011;54641;50.168;8.492;2022-09-09T15:09:15;3.70;;;1.00;;
64037;SDS011;54641;50.168;8.492;2022-09-09T15:11:46;3.60;;;0.90;;
64037;SDS011;54641;50.168;8.492;2022-09-09T15:14:16;2.70;;;0.90;;
64037;SDS011;54641;50.168;8.492;2022-09-09T15:16:52;2.20;;;0.90;;
64037;SDS011;54641;50.168;8.492;2022-09-09T15:19:22;3.40;;;1.10;;
64037;SDS011;54641;50.168;8.492;2022-09-09T15:21:52;2.90;;;0.80;;
64037;SDS011;54641;50.168;8.492;2022-09-09T15:24:23;4.20;;;0.90;;
64037;SDS011;54641;50.168;8.492;2022-09-09T15:26:53;3.50;;;1.00;;
64037;SDS011;54641;50.168;8.492;2022-09-09T15:29:24;4.00;;;1.10;;
64037;SDS011;54641;50.168;8.492;2022-09-09T15:31:55;3.90;;;0.90;;
64037;SDS011;54641;50.168;8.492;2022-09-09T15:34:25;6.10;;;1.50;;
64037;SDS011;54641;50.168;8.492;2022-09-09T15:36:56;4.50;;;0.90;;
64037;SDS011;54641;50.168;8.492;2022-09-09T15:39:27;2.70;;;0.80;;
64037;SDS011;54641;50.168;8.492;2022-09-09T15:42:02;3.80;;;0.80;;
64037;SDS011;54641;50.168;8.492;2022-09-09T15:44:39;1.40;;;0.80;;
64037;SDS011;54641;50.168;8.492;2022-09-09T15:47:11;2.90;;;0.80;;
64037;SDS011;54641;50.168;8.492;2022-09-09T15:50:25;4.40;;;0.80;;
64037;SDS011;54641;50.168;8.492;2022-09-09T15:52:57;4.40;;;0.70;;
64037;SDS011;54641;50.168;8.492;2022-09-09T15:55:28;3.40;;;0.80;;
64037;SDS011;54641;50.168;8.492;2022-09-09T15:57:59;3.10;;;1.30;;
64037;SDS011;54641;50.168;8.492;2022-09-09T16:00:29;6.00;;;1.10;;
64037;SDS011;54641;50.168;8.492;2022-09-09T16:03:02;3.70;;;1.40;;
64037;SDS011;54641;50.168;8.492;2022-09-09T16:05:34;2.90;;;0.80;;
64037;SDS011;54641;50.168;8.492;2022-09-09T16:08:04;3.90;;;1.00;;
64037;SDS011;54641;50.168;8.492;2022-09-09T16:10:34;4.00;;;0.90;;